createdAt,value
2023-02-11T00:01:16.593Z,1.13
2023-02-11T00:03:44.035Z,1.11
2023-02-11T00:06:11.875Z,1.10
2023-02-11T00:08:40.077Z,1.07
2023-02-11T00:11:07.823Z,0.95
2023-02-11T00:13:35.160Z,0.94
2023-02-11T00:16:07.598Z,0.94
2023-02-11T00:18:36.423Z,0.83
2023-02-11T00:21:09.656Z,0.73
2023-02-11T00:23:37.196Z,0.67
2023-02-11T00:26:11.328Z,0.65
2023-02-11T00:28:40.512Z,0.78
2023-02-11T00:31:12.272Z,0.80
2023-02-11T00:33:39.707Z,0.78
2023-02-11T00:36:09.846Z,0.77
2023-02-11T00:38:37.321Z,0.86
2023-02-11T00:41:05.039Z,0.86
2023-02-11T00:43:32.394Z,0.72
2023-02-11T00:45:59.849Z,0.63
2023-02-11T00:48:27.300Z,0.69
2023-02-11T00:50:54.711Z,0.60
2023-02-11T00:53:22.116Z,0.55
2023-02-11T00:55:49.682Z,0.53
2023-02-11T00:58:17.270Z,0.45
2023-02-11T01:00:44.822Z,0.51
2023-02-11T01:03:13.414Z,0.53
2023-02-11T01:05:40.827Z,0.44
2023-02-11T01:08:10.348Z,0.35
2023-02-11T01:10:37.862Z,0.36
2023-02-11T01:13:06.547Z,0.33
2023-02-11T01:15:33.996Z,0.38
2023-02-11T01:18:01.463Z,0.45
2023-02-11T01:20:29.671Z,0.45
2023-02-11T01:22:57.453Z,0.47
2023-02-11T01:25:24.834Z,0.47
2023-02-11T01:30:53.138Z,0.42
2023-02-11T01:33:20.905Z,0.45
2023-02-11T01:35:48.470Z,0.48
2023-02-11T01:38:25.017Z,0.58
2023-02-11T01:41:02.625Z,0.65
2023-02-11T01:43:36.802Z,0.54
2023-02-11T01:46:28.294Z,0.40
2023-02-11T01:49:08.481Z,0.43
2023-02-11T01:51:45.100Z,0.50
2023-02-11T01:54:35.498Z,0.40
2023-02-11T01:57:22.912Z,0.31
2023-02-11T02:00:01.309Z,0.36
2023-02-11T02:02:48.924Z,0.37
2023-02-11T02:05:23.551Z,0.50
2023-02-11T02:08:00.001Z,0.40
2023-02-11T02:10:31.346Z,0.31
2023-02-11T02:12:59.266Z,0.23
2023-02-11T02:15:36.407Z,0.15
2023-02-11T02:18:19.901Z,0.17
2023-02-11T02:20:56.369Z,0.08
2023-02-11T02:23:35.535Z,0.13
2023-02-11T02:26:24.755Z,0.03
2023-02-11T02:29:17.252Z,0.00
2023-02-11T02:31:50.601Z,0.10
2023-02-11T02:34:42.111Z,0.12
2023-02-11T02:37:18.290Z,0.08
2023-02-11T02:39:48.869Z,-0.01
2023-02-11T02:42:18.494Z,0.04
2023-02-11T02:44:53.288Z,0.02
2023-02-11T02:47:39.447Z,-0.01
2023-02-11T02:50:09.077Z,-0.06
2023-02-11T02:52:53.071Z,0.02
2023-02-11T02:55:51.657Z,0.00
2023-02-11T02:58:34.960Z,0.04
2023-02-11T03:01:18.899Z,0.30
2023-02-11T03:04:14.549Z,0.38
2023-02-11T03:07:00.704Z,0.25
2023-02-11T03:09:49.602Z,0.16
2023-02-11T03:12:17.681Z,0.05
2023-02-11T03:14:46.675Z,-0.09
2023-02-11T03:17:16.225Z,-0.14
2023-02-11T03:19:46.454Z,-0.22
2023-02-11T03:22:22.043Z,-0.16
2023-02-11T03:24:49.772Z,-0.21
2023-02-11T03:27:33.004Z,-0.25
2023-02-11T03:30:16.643Z,-0.31
2023-02-11T03:32:52.312Z,-0.37
2023-02-11T03:35:43.682Z,-0.49
2023-02-11T03:38:23.605Z,-0.32
2023-02-11T03:40:51.968Z,-0.41
2023-02-11T03:43:33.574Z,-0.33
2023-02-11T03:46:02.261Z,-0.37
2023-02-11T03:48:37.994Z,-0.44
2023-02-11T03:51:09.748Z,-0.56
2023-02-11T03:53:41.252Z,-0.65
2023-02-11T03:56:11.133Z,-0.87
2023-02-11T03:58:38.709Z,-0.89
2023-02-11T04:01:08.961Z,-0.81
2023-02-11T04:03:36.526Z,-0.70
2023-02-11T04:06:04.188Z,-0.75
2023-02-11T04:08:32.933Z,-0.73
2023-02-11T04:11:00.304Z,-0.73
2023-02-11T04:13:27.767Z,-0.62
2023-02-11T04:15:55.146Z,-0.67
2023-02-11T04:18:22.623Z,-0.69
2023-02-11T04:20:51.052Z,-0.71
2023-02-11T04:23:18.432Z,-1.19
2023-02-11T04:25:45.920Z,-1.19
2023-02-11T04:28:14.189Z,-0.95
2023-02-11T04:30:41.537Z,-0.75
2023-02-11T04:33:08.912Z,-0.88
2023-02-11T04:35:36.327Z,-1.42
2023-02-11T04:38:03.679Z,-1.02
2023-02-11T04:40:31.217Z,-0.58
2023-02-11T04:42:58.631Z,-0.57
2023-02-11T04:45:26.043Z,-0.72
2023-02-11T04:47:53.483Z,-0.77
2023-02-11T04:50:20.952Z,-0.67
2023-02-11T04:52:48.427Z,-0.59
2023-02-11T04:55:15.887Z,-0.83
2023-02-11T04:57:43.257Z,-0.85
2023-02-11T05:00:11.099Z,-0.69
2023-02-11T05:02:38.558Z,-0.59
2023-02-11T05:05:06.085Z,-0.85
2023-02-11T05:07:33.702Z,-0.79
2023-02-11T05:10:01.115Z,-0.91
2023-02-11T05:12:28.520Z,-0.93
2023-02-11T05:14:55.907Z,-1.03
2023-02-11T05:17:23.265Z,-1.25
2023-02-11T05:19:50.711Z,-1.17
2023-02-11T05:22:18.177Z,-1.22
2023-02-11T05:24:45.611Z,-1.29
2023-02-11T05:27:13.074Z,-1.23
2023-02-11T05:29:40.448Z,-1.25
2023-02-11T05:32:09.065Z,-1.24
2023-02-11T05:34:36.716Z,-1.01
2023-02-11T05:37:04.086Z,-0.99
2023-02-11T05:39:31.454Z,-1.34
2023-02-11T05:41:58.800Z,-1.11
2023-02-11T05:44:26.084Z,-1.04
2023-02-11T05:46:53.359Z,-1.03
2023-02-11T05:49:20.689Z,-1.37
2023-02-11T05:51:48.594Z,-1.17
2023-02-11T05:54:16.778Z,-1.05
2023-02-11T05:56:45.002Z,-0.75
2023-02-11T05:59:14.622Z,-0.70
2023-02-11T06:01:42.024Z,-0.80
2023-02-11T06:04:09.493Z,-0.77
2023-02-11T06:06:36.880Z,-0.63
2023-02-11T06:09:04.294Z,-0.61
2023-02-11T06:11:31.656Z,-0.55
2023-02-11T06:13:58.996Z,-0.64
2023-02-11T06:16:26.403Z,-0.88
2023-02-11T06:18:53.758Z,-1.05
2023-02-11T06:21:21.116Z,-1.17
2023-02-11T06:23:49.209Z,-1.15
2023-02-11T06:26:19.624Z,-1.14
2023-02-11T06:28:47.068Z,-1.31
2023-02-11T06:31:15.251Z,-1.51
2023-02-11T06:33:42.622Z,-1.41
2023-02-11T06:36:17.630Z,-1.49
2023-02-11T06:38:46.002Z,-1.26
2023-02-11T06:41:15.790Z,-1.13
2023-02-11T06:43:43.687Z,-1.16
2023-02-11T06:46:11.055Z,-1.08
2023-02-11T06:48:38.654Z,-1.11
2023-02-11T06:51:12.096Z,-1.20
2023-02-11T06:53:42.212Z,-1.03
2023-02-11T06:56:12.216Z,-0.95
2023-02-11T06:58:39.712Z,-1.13
2023-02-11T07:01:09.454Z,-1.08
2023-02-11T07:03:38.394Z,-0.98
2023-02-11T07:06:07.496Z,-0.84
2023-02-11T07:08:36.336Z,-0.72
2023-02-11T07:11:27.988Z,-0.69
2023-02-11T07:13:56.824Z,-0.65
2023-02-11T07:16:24.137Z,-0.61
2023-02-11T07:18:51.592Z,-0.66
2023-02-11T07:21:21.003Z,-0.53
2023-02-11T07:23:48.873Z,-0.49
2023-02-11T07:26:19.146Z,-0.43
2023-02-11T07:28:48.855Z,-0.47
2023-02-11T07:31:20.102Z,-0.51
2023-02-11T07:33:47.622Z,-0.53
2023-02-11T07:36:16.640Z,-0.38
2023-02-11T07:38:44.587Z,-0.28
2023-02-11T07:41:17.645Z,-0.24
2023-02-11T07:43:45.580Z,-0.25
2023-02-11T07:46:19.283Z,-0.09
2023-02-11T07:48:47.355Z,0.04
2023-02-11T07:51:17.679Z,0.15
2023-02-11T07:53:46.020Z,0.35
2023-02-11T07:56:15.278Z,0.53
2023-02-11T07:58:43.631Z,0.55
2023-02-11T08:01:17.540Z,0.60
2023-02-11T08:03:45.556Z,0.76
2023-02-11T08:06:16.500Z,0.69
2023-02-11T08:08:44.151Z,0.86
2023-02-11T08:11:14.801Z,0.88
2023-02-11T08:13:42.492Z,1.11
2023-02-11T08:16:16.836Z,1.33
2023-02-11T08:18:44.236Z,1.34
2023-02-11T08:21:11.921Z,1.53
2023-02-11T08:23:40.962Z,1.63
2023-02-11T08:26:11.367Z,1.92
2023-02-11T08:29:15.921Z,2.74
2023-02-11T08:31:45.950Z,3.81
2023-02-11T08:34:14.486Z,4.64
2023-02-11T08:36:43.066Z,4.85
2023-02-11T08:39:20.741Z,4.96
2023-02-11T08:41:50.705Z,4.99
2023-02-11T08:44:21.708Z,5.50
2023-02-11T08:46:50.111Z,5.67
2023-02-11T08:49:17.854Z,5.51
2023-02-11T08:51:46.271Z,5.73
2023-02-11T08:54:14.343Z,6.16
2023-02-11T08:56:42.422Z,6.82
2023-02-11T08:59:13.872Z,6.77
2023-02-11T09:01:41.576Z,6.08
2023-02-11T09:04:10.498Z,5.99
2023-02-11T09:06:37.842Z,6.12
2023-02-11T09:09:05.636Z,6.35
2023-02-11T09:11:35.664Z,5.59
2023-02-11T09:14:04.563Z,5.43
2023-02-11T09:16:34.776Z,5.08
2023-02-11T09:19:04.017Z,4.87
2023-02-11T09:21:31.467Z,4.78
2023-02-11T09:23:58.827Z,4.85
2023-02-11T09:26:29.346Z,4.68
2023-02-11T09:29:07.732Z,4.50
2023-02-11T09:34:22.798Z,4.34
2023-02-11T09:36:50.316Z,4.48
2023-02-11T09:39:20.515Z,4.42
2023-02-11T09:41:55.617Z,4.28
2023-02-11T09:44:30.090Z,4.20
2023-02-11T09:47:01.008Z,4.38
2023-02-11T09:49:39.561Z,4.23
2023-02-11T09:52:30.810Z,4.39
2023-02-11T09:55:04.287Z,4.41
2023-02-11T09:57:35.044Z,4.38
2023-02-11T10:00:17.150Z,4.18
2023-02-11T10:03:04.512Z,4.35
2023-02-11T10:05:48.887Z,4.30
2023-02-11T10:08:42.713Z,4.32
2023-02-11T10:11:32.136Z,4.38
2023-02-11T10:14:36.980Z,4.57
2023-02-11T10:17:19.188Z,4.58
2023-02-11T10:20:03.230Z,4.55
2023-02-11T10:22:46.948Z,4.52
2023-02-11T10:25:20.102Z,4.84
2023-02-11T10:27:48.410Z,4.81
2023-02-11T10:30:22.122Z,4.93
2023-02-11T10:32:56.523Z,5.01
2023-02-11T10:35:24.821Z,5.12
2023-02-11T10:37:52.479Z,5.04
2023-02-11T10:40:23.885Z,5.07
2023-02-11T10:42:55.674Z,5.18
2023-02-11T10:45:33.284Z,5.05
2023-02-11T10:48:04.507Z,5.13
2023-02-11T10:50:35.040Z,5.09
2023-02-11T10:53:13.627Z,4.99
2023-02-11T10:55:50.414Z,5.10
2023-02-11T10:58:28.099Z,5.12
2023-02-11T11:00:57.413Z,5.16
2023-02-11T11:03:27.475Z,5.11
2023-02-11T11:06:02.009Z,5.12
2023-02-11T11:08:50.898Z,5.24
2023-02-11T11:11:23.925Z,5.33
2023-02-11T11:13:54.235Z,5.39
2023-02-11T11:16:36.306Z,5.62
2023-02-11T11:19:06.612Z,5.69
2023-02-11T11:21:42.761Z,5.75
2023-02-11T11:24:21.142Z,5.78
2023-02-11T11:26:55.025Z,5.93
2023-02-11T11:29:34.434Z,5.99
2023-02-11T11:32:24.067Z,6.22
2023-02-11T11:34:55.642Z,6.40
2023-02-11T11:37:27.161Z,6.39
2023-02-11T11:40:03.577Z,6.49
2023-02-11T11:42:33.463Z,6.59
2023-02-11T11:45:04.708Z,6.51
2023-02-11T11:47:56.359Z,6.64
2023-02-11T11:50:43.589Z,6.67
2023-02-11T11:53:31.891Z,6.80
2023-02-11T11:56:23.111Z,6.67
2023-02-11T11:58:50.962Z,6.59
2023-02-11T12:01:36.588Z,6.48
2023-02-11T12:04:25.719Z,6.49
2023-02-11T12:07:01.840Z,6.52
2023-02-11T12:09:48.296Z,6.71
2023-02-11T12:12:34.474Z,6.81
2023-02-11T12:15:19.308Z,6.92
2023-02-11T12:17:59.915Z,6.96
2023-02-11T12:20:27.406Z,7.02
2023-02-11T12:23:37.109Z,6.96
2023-02-11T12:26:19.540Z,6.78
2023-02-11T12:29:45.346Z,6.94
2023-02-11T12:32:33.929Z,6.84
2023-02-11T12:35:16.441Z,6.72
2023-02-11T12:38:21.824Z,6.81
2023-02-11T12:41:11.296Z,6.85
2023-02-11T12:43:41.017Z,6.80
2023-02-11T12:46:19.251Z,6.81
2023-02-11T12:49:14.333Z,6.85
2023-02-11T12:52:00.023Z,7.02
2023-02-11T12:54:35.569Z,7.11
2023-02-11T12:57:18.150Z,7.26
2023-02-11T13:00:12.708Z,7.38
2023-02-11T13:02:45.955Z,7.46
2023-02-11T13:05:29.510Z,7.69
2023-02-11T13:08:10.866Z,7.85
2023-02-11T13:10:41.585Z,8.10
2023-02-11T13:13:19.121Z,8.31
2023-02-11T13:16:09.783Z,8.28
2023-02-11T13:18:52.590Z,8.09
2023-02-11T13:21:31.319Z,8.11
2023-02-11T13:24:17.394Z,8.01
2023-02-11T13:27:12.475Z,7.97
2023-02-11T13:30:20.036Z,8.08
2023-02-11T13:32:54.782Z,8.05
2023-02-11T13:35:34.332Z,8.08
2023-02-11T13:38:05.104Z,8.16
2023-02-11T13:40:39.705Z,8.23
2023-02-11T13:43:21.143Z,8.27
2023-02-11T13:45:51.078Z,8.31
2023-02-11T13:48:31.083Z,8.41
2023-02-11T13:51:02.064Z,8.28
2023-02-11T13:53:29.910Z,8.20
2023-02-11T13:56:11.349Z,8.29
2023-02-11T13:58:49.890Z,8.25
2023-02-11T14:01:44.161Z,8.44
2023-02-11T14:04:44.404Z,8.55
2023-02-11T14:07:42.349Z,8.62
2023-02-11T14:10:38.883Z,8.59
2023-02-11T14:13:22.899Z,8.53
2023-02-11T14:16:06.087Z,8.44
2023-02-11T14:18:45.780Z,8.51
2023-02-11T14:21:17.507Z,8.62
2023-02-11T14:23:45.455Z,8.74
2023-02-11T14:26:21.721Z,8.75
2023-02-11T14:28:54.995Z,8.82
2023-02-11T14:31:28.983Z,8.87
2023-02-11T14:33:56.466Z,8.85
2023-02-11T14:36:46.269Z,8.82
2023-02-11T14:39:16.425Z,9.01
2023-02-11T14:41:48.169Z,9.05
2023-02-11T14:44:17.827Z,8.94
2023-02-11T14:46:47.486Z,8.93
2023-02-11T14:49:25.438Z,8.95
2023-02-11T14:51:56.677Z,8.84
2023-02-11T14:54:27.447Z,8.86
2023-02-11T14:57:14.151Z,8.71
2023-02-11T15:00:02.378Z,8.77
2023-02-11T15:02:37.161Z,8.82
2023-02-11T15:05:34.768Z,8.70
2023-02-11T15:08:05.079Z,8.66
2023-02-11T15:10:41.462Z,8.57
2023-02-11T15:13:16.431Z,8.58
2023-02-11T15:15:46.435Z,8.70
2023-02-11T15:18:22.761Z,8.59
2023-02-11T15:20:52.099Z,8.52
2023-02-11T15:23:25.071Z,8.44
2023-02-11T15:25:53.025Z,8.35
2023-02-11T15:28:38.723Z,8.55
2023-02-11T15:31:16.399Z,8.55
2023-02-11T15:33:43.873Z,8.39
2023-02-11T15:36:13.607Z,8.52
2023-02-11T15:38:41.108Z,8.55
2023-02-11T15:41:29.064Z,8.34
2023-02-11T15:43:56.384Z,8.45
2023-02-11T15:46:24.336Z,8.44
2023-02-11T15:48:53.954Z,8.44
2023-02-11T15:51:32.869Z,8.39
2023-02-11T15:54:05.864Z,8.48
2023-02-11T15:56:43.570Z,8.45
2023-02-11T15:59:27.446Z,8.40
2023-02-11T16:01:55.532Z,8.45
2023-02-11T16:04:25.930Z,8.37
2023-02-11T16:06:55.403Z,8.27
2023-02-11T16:09:33.710Z,8.27
2023-02-11T16:12:22.607Z,8.19
2023-02-11T16:14:50.008Z,8.14
2023-02-11T16:17:28.851Z,8.05
2023-02-11T16:19:56.335Z,7.92
2023-02-11T16:22:30.293Z,7.88
2023-02-11T16:24:59.752Z,7.77
2023-02-11T16:27:34.421Z,7.75
2023-02-11T16:30:02.156Z,7.82
2023-02-11T16:32:30.302Z,7.73
2023-02-11T16:35:00.829Z,7.60
2023-02-11T16:37:28.321Z,7.49
2023-02-11T16:39:57.009Z,7.43
2023-02-11T16:42:24.779Z,7.27
2023-02-11T16:44:52.249Z,7.15
2023-02-11T16:47:24.327Z,7.09
2023-02-11T16:49:52.424Z,7.08
2023-02-11T16:52:21.549Z,7.06
2023-02-11T16:54:49.107Z,7.02
2023-02-11T16:57:24.956Z,6.97
2023-02-11T16:59:52.949Z,6.89
2023-02-11T17:02:25.285Z,6.83
2023-02-11T17:04:54.712Z,6.77
2023-02-11T17:07:22.478Z,6.75
2023-02-11T17:09:50.209Z,6.68
2023-02-11T17:12:18.022Z,6.52
2023-02-11T17:14:45.451Z,6.44
2023-02-11T17:17:13.095Z,6.42
2023-02-11T17:19:40.409Z,6.38
2023-02-11T17:22:07.845Z,6.37
2023-02-11T17:24:35.321Z,6.35
2023-02-11T17:27:02.769Z,6.32
2023-02-11T17:29:30.072Z,6.30
2023-02-11T17:31:57.456Z,6.24
2023-02-11T17:34:24.881Z,6.22
2023-02-11T17:36:52.176Z,6.11
2023-02-11T17:39:21.090Z,6.08
2023-02-11T17:41:48.727Z,6.04
2023-02-11T17:44:16.733Z,5.95
2023-02-11T17:46:44.348Z,5.97
2023-02-11T17:49:12.186Z,5.96
2023-02-11T17:51:40.250Z,5.92
2023-02-11T17:54:12.435Z,5.82
2023-02-11T17:56:40.456Z,5.70
2023-02-11T17:59:09.314Z,5.76
2023-02-11T18:01:40.268Z,5.73
2023-02-11T18:04:13.575Z,5.73
2023-02-11T18:06:41.330Z,5.70
2023-02-11T18:09:09.845Z,5.70
2023-02-11T18:11:39.344Z,5.58
2023-02-11T18:14:08.508Z,5.62
2023-02-11T18:16:39.075Z,5.53
2023-02-11T18:19:08.063Z,5.53
2023-02-11T18:21:36.016Z,5.58
2023-02-11T18:24:06.814Z,5.53
2023-02-11T18:26:35.666Z,5.52
2023-02-11T18:29:03.920Z,5.49
2023-02-11T18:31:31.566Z,5.40
2023-02-11T18:33:59.013Z,5.22
2023-02-11T18:36:29.430Z,5.30
2023-02-11T18:39:01.550Z,5.33
2023-02-11T18:41:29.820Z,5.26
2023-02-11T18:43:58.678Z,5.21
2023-02-11T18:46:26.095Z,5.18
2023-02-11T18:48:55.994Z,5.22
2023-02-11T18:51:24.343Z,5.27
2023-02-11T18:53:52.176Z,5.22
2023-02-11T18:56:22.810Z,5.25
2023-02-11T18:58:51.417Z,5.20
2023-02-11T19:01:24.216Z,5.15
2023-02-11T19:03:51.949Z,5.09
2023-02-11T19:06:22.444Z,5.05
2023-02-11T19:08:53.353Z,5.01
2023-02-11T19:11:42.185Z,4.98
2023-02-11T19:14:30.336Z,4.98
2023-02-11T19:16:59.986Z,4.95
2023-02-11T19:19:30.550Z,4.91
2023-02-11T19:21:59.559Z,4.85
2023-02-11T19:24:27.897Z,4.88
2023-02-11T19:27:01.020Z,4.79
2023-02-11T19:29:32.195Z,4.73
2023-02-11T19:32:10.406Z,4.74
2023-02-11T19:34:41.326Z,4.71
2023-02-11T19:37:12.161Z,4.71
2023-02-11T19:39:40.766Z,4.72
2023-02-11T19:42:08.878Z,4.70
2023-02-11T19:44:41.696Z,4.64
2023-02-11T19:47:10.547Z,4.50
2023-02-11T19:49:38.239Z,4.58
2023-02-11T19:52:05.594Z,4.54
2023-02-11T19:54:44.313Z,4.54
2023-02-11T19:57:12.219Z,4.46
2023-02-11T19:59:42.587Z,4.23
2023-02-11T20:02:12.316Z,4.28
2023-02-11T20:04:39.896Z,4.24
2023-02-11T20:07:11.743Z,4.11
2023-02-11T20:09:40.958Z,4.26
2023-02-11T20:12:08.952Z,4.30
2023-02-11T20:14:36.795Z,4.25
2023-02-11T20:17:04.377Z,4.30
2023-02-11T20:19:31.994Z,4.57
2023-02-11T20:21:59.720Z,4.51
2023-02-11T20:24:33.878Z,4.41
2023-02-11T20:27:01.780Z,4.30
2023-02-11T20:29:31.259Z,4.31
2023-02-11T20:31:58.813Z,4.24
2023-02-11T20:34:26.235Z,4.14
2023-02-11T20:36:54.171Z,3.98
2023-02-11T20:39:23.518Z,3.81
2023-02-11T20:41:52.412Z,3.84
2023-02-11T20:44:24.008Z,3.83
2023-02-11T20:46:53.883Z,4.05
2023-02-11T20:49:23.961Z,3.98
2023-02-11T20:51:53.612Z,3.94
2023-02-11T20:54:23.254Z,3.85
2023-02-11T20:56:51.429Z,3.80
2023-02-11T20:59:19.297Z,3.72
2023-02-11T21:01:50.218Z,3.78
2023-02-11T21:04:21.220Z,3.69
2023-02-11T21:06:52.279Z,3.76
2023-02-11T21:09:22.833Z,3.66
2023-02-11T21:11:51.709Z,3.66
2023-02-11T21:14:20.846Z,3.53
2023-02-11T21:16:49.200Z,3.55
2023-02-11T21:19:17.885Z,3.56
2023-02-11T21:21:45.864Z,3.39
2023-02-11T21:24:13.941Z,3.36
2023-02-11T21:26:41.716Z,3.28
2023-02-11T21:29:09.548Z,3.28
2023-02-11T21:31:45.769Z,3.26
2023-02-11T21:34:13.211Z,3.43
2023-02-11T21:36:45.587Z,3.56
2023-02-11T21:39:20.436Z,3.56
2023-02-11T21:41:53.366Z,3.49
2023-02-11T21:44:21.708Z,3.44
2023-02-11T21:46:55.013Z,3.40
2023-02-11T21:49:22.779Z,3.40
2023-02-11T21:51:52.315Z,3.47
2023-02-11T21:54:25.897Z,3.42
2023-02-11T21:57:00.846Z,3.37
2023-02-11T21:59:42.683Z,3.34
2023-02-11T22:02:15.558Z,3.14
2023-02-11T22:04:46.703Z,3.14
2023-02-11T22:07:17.118Z,3.11
2023-02-11T22:09:48.734Z,3.13
2023-02-11T22:12:18.365Z,3.09
2023-02-11T22:14:50.981Z,3.02
2023-02-11T22:17:25.382Z,3.10
2023-02-11T22:19:58.482Z,3.11
2023-02-11T22:22:33.022Z,3.04
2023-02-11T22:25:04.224Z,2.89
2023-02-11T22:27:31.722Z,2.96
2023-02-11T22:30:09.878Z,2.91
2023-02-11T22:32:42.650Z,2.94
2023-02-11T22:35:10.704Z,2.89
2023-02-11T22:37:39.373Z,2.84
2023-02-11T22:40:07.634Z,2.90
2023-02-11T22:42:35.506Z,2.97
2023-02-11T22:45:03.223Z,2.98
2023-02-11T22:47:31.018Z,3.02
2023-02-11T22:49:59.315Z,3.03
2023-02-11T22:52:28.433Z,3.05
2023-02-11T22:54:56.169Z,2.95
2023-02-11T22:57:23.660Z,2.83
2023-02-11T22:59:51.141Z,3.08
2023-02-11T23:02:18.664Z,3.17
2023-02-11T23:04:49.617Z,3.15
2023-02-11T23:07:17.519Z,3.21
2023-02-11T23:09:45.354Z,3.11
2023-02-11T23:12:13.563Z,3.12
2023-02-11T23:14:42.686Z,3.02
2023-02-11T23:17:21.788Z,2.97
2023-02-11T23:19:49.149Z,2.90
2023-02-11T23:22:16.607Z,3.01
2023-02-11T23:24:44.791Z,2.89
2023-02-11T23:27:12.439Z,2.74
2023-02-11T23:29:40.764Z,2.74
2023-02-11T23:32:11.138Z,2.71
2023-02-11T23:34:38.773Z,2.64
2023-02-11T23:37:06.604Z,2.65
2023-02-11T23:39:34.140Z,2.77
2023-02-11T23:42:01.998Z,3.07
2023-02-11T23:44:30.194Z,3.09
2023-02-11T23:46:58.425Z,2.82
2023-02-11T23:49:44.486Z,2.64
2023-02-11T23:52:12.145Z,2.64
2023-02-11T23:54:39.792Z,2.56
2023-02-11T23:57:07.897Z,2.73
2023-02-11T23:59:35.620Z,2.72
